Itapejara d'Oeste, Brazil
Current Conditions -  °F | °C
As of 8:00 PM on Friday 19 Dec 2014 (Local Time) from SBCA Reporting Station
Few Clouds Few Clouds  
Wind Chill: 79°   Ceiling: Unl
Heat Index: 80°   Visibility: 6mi
Dew Point: 59°   Wind: 14mph
Humidity: 51%   Direction: 230°SW
Pressure: 29.8"   Gusts: NA
Location:  25.97°S, 52.82°W
Report Text: SBCA 192200Z 23012KT 9999 FEW030 26/15 Q1009
Loading
Personal Weather Stations






























Interactive Weather Map New forecast layout! Learn more

10-Day Weather Forecast

Advertisements
Track Severe Weather on mobile